Time;durP1;ratioP1;P1;durP2;ratioP2;P2;SDS_P1;SDS_P2;PMS_P1;PMS_P2;Temp;Humidity;BMP_temperature;BMP_pressure;BME280_temperature;BME280_humidity;BME280_pressure;Samples;Min_cycle;Max_cycle;Signal;HPM_P1;HPM_P2
2021/01/05 00:00:50;;;;;;;1.85;1.20;;;22.40;50.40;;;;;;5039949;28;20056;-66
2021/01/05 00:03:15;;;;;;;1.88;1.30;;;22.40;50.40;;;;;;5039399;28;20060;-66
2021/01/05 00:05:41;;;;;;;1.65;1.20;;;22.40;50.40;;;;;;5045481;28;20051;-66
2021/01/05 00:08:07;;;;;;;2.03;1.20;;;22.30;50.40;;;;;;5038453;28;20480;-66
2021/01/05 00:10:33;;;;;;;2.10;1.25;;;22.30;50.50;;;;;;5029112;28;20450;-66
2021/01/05 00:12:58;;;;;;;2.67;1.30;;;22.30;50.50;;;;;;5027567;28;20066;-66
2021/01/05 00:15:24;;;;;;;1.90;1.33;;;22.30;50.50;;;;;;5029115;28;20089;-66
2021/01/05 00:17:50;;;;;;;2.10;1.30;;;22.30;50.60;;;;;;5026924;28;20029;-66
2021/01/05 00:20:23;;;;;;;1.77;1.30;;;22.30;50.50;;;;;;5030361;28;20034;-66
2021/01/05 00:22:49;;;;;;;1.85;1.30;;;22.20;50.50;;;;;;5045356;28;20029;-66
2021/01/05 00:25:17;;;;;;;1.80;1.20;;;22.20;50.50;;;;;;5039564;28;20035;-66
2021/01/05 00:27:42;;;;;;;1.73;1.10;;;22.20;50.50;;;;;;5041110;28;20040;-66
2021/01/05 00:30:14;;;;;;;1.60;1.10;;;22.20;50.60;;;;;;5033235;28;20028;-66
2021/01/05 00:32:42;;;;;;;1.38;1.00;;;22.20;50.70;;;;;;5042758;28;20132;-66
2021/01/05 00:35:11;;;;;;;1.90;1.00;;;22.10;50.60;;;;;;5044656;28;20035;-66
2021/01/05 00:37:37;;;;;;;2.05;1.20;;;22.10;50.70;;;;;;5038189;28;20025;-66
2021/01/05 00:40:04;;;;;;;1.90;1.20;;;22.10;50.80;;;;;;5044093;28;20126;-66
2021/01/05 00:42:30;;;;;;;1.63;1.10;;;22.10;50.80;;;;;;5044611;28;20029;-66
2021/01/05 00:44:55;;;;;;;1.60;1.13;;;22.10;50.80;;;;;;5031810;28;20033;-66
2021/01/05 00:47:21;;;;;;;1.50;1.00;;;22.00;50.80;;;;;;5030939;28;20131;-66
2021/01/05 00:49:46;;;;;;;1.15;1.00;;;22.00;50.80;;;;;;5031009;28;20026;-66
2021/01/05 00:52:12;;;;;;;1.42;1.08;;;22.00;50.90;;;;;;5026785;28;20025;-66
2021/01/05 00:54:38;;;;;;;1.52;1.10;;;22.00;51.00;;;;;;5031899;28;20434;-66
2021/01/05 00:57:06;;;;;;;1.73;1.00;;;22.00;51.00;;;;;;5025358;28;20029;-67
2021/01/05 00:59:32;;;;;;;1.25;0.95;;;21.90;51.00;;;;;;5028967;28;20060;-66
2021/01/05 01:01:59;;;;;;;1.65;1.00;;;21.90;51.00;;;;;;5032400;28;20344;-66
2021/01/05 01:04:25;;;;;;;1.98;1.00;;;21.90;51.10;;;;;;5032554;28;20033;-66
2021/01/05 01:06:51;;;;;;;1.67;1.05;;;21.90;51.10;;;;;;5036716;28;20043;-66
2021/01/05 01:09:16;;;;;;;1.20;0.90;;;21.90;51.20;;;;;;5043527;28;20029;-66
2021/01/05 01:12:04;;;;;;;1.50;1.00;;;21.80;51.10;;;;;;5025597;28;20434;-66
2021/01/05 01:14:32;;;;;;;1.30;0.90;;;21.80;51.10;;;;;;5027410;28;20075;-67
2021/01/05 01:16:57;;;;;;;1.30;0.90;;;21.80;51.20;;;;;;5025466;28;20148;-66
2021/01/05 01:19:23;;;;;;;1.08;0.90;;;21.80;51.30;;;;;;5023307;28;20120;-66
2021/01/05 01:21:51;;;;;;;1.33;0.90;;;21.80;51.30;;;;;;5024361;28;20021;-66
2021/01/05 01:24:22;;;;;;;1.48;0.90;;;21.80;51.30;;;;;;5029534;28;20041;-66
2021/01/05 01:26:48;;;;;;;1.30;1.00;;;21.80;51.30;;;;;;5021898;28;20052;-66
2021/01/05 01:29:18;;;;;;;1.40;1.10;;;21.80;51.30;;;;;;5023964;28;20037;-66
2021/01/05 01:31:44;;;;;;;1.42;0.98;;;21.70;51.30;;;;;;5033637;28;20072;-66
2021/01/05 01:34:11;;;;;;;2.10;1.10;;;21.70;51.40;;;;;;5045842;28;20271;-66
2021/01/05 01:36:36;;;;;;;1.17;1.00;;;21.70;51.40;;;;;;5030604;28;20033;-66
2021/01/05 01:39:04;;;;;;;1.73;0.98;;;21.70;51.40;;;;;;5022917;28;20035;-66
2021/01/05 01:41:29;;;;;;;1.42;0.90;;;21.70;51.40;;;;;;5041341;28;20430;-66
2021/01/05 01:43:55;;;;;;;1.52;1.00;;;21.70;51.40;;;;;;5030091;28;20033;-66
2021/01/05 01:46:22;;;;;;;1.02;0.90;;;21.60;51.40;;;;;;5031351;28;20108;-66
2021/01/05 01:48:47;;;;;;;1.67;1.02;;;21.60;51.40;;;;;;5020371;28;20455;-66
2021/01/05 01:51:13;;;;;;;1.00;0.80;;;21.60;51.40;;;;;;5023545;28;20030;-66
2021/01/05 01:54:03;;;;;;;1.20;0.80;;;21.60;51.50;;;;;;5026424;28;20026;-66
2021/01/05 01:56:44;;;;;;;1.10;0.85;;;21.60;51.40;;;;;;5035574;28;20080;-66
2021/01/05 01:59:18;;;;;;;1.30;0.80;;;21.60;51.50;;;;;;5029929;28;20048;-66
2021/01/05 02:01:58;;;;;;;1.38;1.00;;;21.60;51.50;;;;;;5037400;28;20068;-66
2021/01/05 02:04:47;;;;;;;1.38;1.00;;;21.50;51.50;;;;;;5042268;28;20044;-66
2021/01/05 02:07:45;;;;;;;1.55;1.05;;;21.50;51.50;;;;;;5032089;28;20055;-66
2021/01/05 02:10:25;;;;;;;1.42;0.90;;;21.50;51.50;;;;;;5031045;28;20037;-66
2021/01/05 02:13:19;;;;;;;1.23;0.90;;;21.50;51.50;;;;;;5027351;28;20112;-66
2021/01/05 02:16:19;;;;;;;1.80;0.95;;;21.50;51.50;;;;;;5034678;28;20029;-66
2021/01/05 02:18:59;;;;;;;1.80;1.00;;;21.50;51.50;;;;;;5026752;28;20027;-66
2021/01/05 02:21:29;;;;;;;1.60;1.00;;;21.50;51.60;;;;;;5035660;28;20021;-66
2021/01/05 02:24:27;;;;;;;1.20;0.80;;;21.50;51.60;;;;;;5029083;28;20033;-66
2021/01/05 02:27:04;;;;;;;2.53;1.00;;;21.40;51.60;;;;;;5028334;28;20057;-66
2021/01/05 02:29:43;;;;;;;1.25;0.90;;;21.40;51.60;;;;;;5026439;28;20166;-66
2021/01/05 02:32:09;;;;;;;;;;;21.40;51.60;;;;;;5042932;28;20110;-66
2021/01/05 02:34:40;;;;;;;1.15;0.90;;;21.40;51.70;;;;;;5040184;28;19954;-66
2021/01/05 02:37:15;;;;;;;1.50;0.95;;;21.40;51.70;;;;;;5028385;28;20037;-66
2021/01/05 02:40:13;;;;;;;1.58;1.00;;;21.40;51.70;;;;;;5025204;28;20027;-66
2021/01/05 02:42:57;;;;;;;1.27;0.98;;;21.40;51.70;;;;;;5043100;28;20029;-66
2021/01/05 02:45:27;;;;;;;1.55;1.00;;;21.30;51.70;;;;;;5031838;28;20039;-66
2021/01/05 02:48:34;;;;;;;1.75;1.10;;;21.30;51.70;;;;;;5033385;28;20139;-66
2021/01/05 02:51:38;;;;;;;1.58;1.05;;;21.30;51.70;;;;;;5027884;28;20502;-66
2021/01/05 02:54:30;;;;;;;1.50;1.00;;;21.30;51.80;;;;;;5042276;28;20080;-66
2021/01/05 02:57:19;;;;;;;1.80;1.00;;;21.20;52.30;;;;;;5042298;28;20079;-66
2021/01/05 03:00:22;;;;;;;1.10;0.88;;;21.20;51.70;;;;;;5046673;28;20074;-66
2021/01/05 03:03:25;;;;;;;1.33;0.93;;;21.20;51.80;;;;;;5032976;28;20750;-66
2021/01/05 03:06:20;;;;;;;1.63;0.90;;;21.20;51.70;;;;;;5029005;28;20034;-66
2021/01/05 03:09:24;;;;;;;1.20;0.90;;;21.20;51.80;;;;;;5025172;28;20611;-66
2021/01/05 03:12:26;;;;;;;1.25;0.98;;;21.20;51.80;;;;;;5026640;28;20030;-66
2021/01/05 03:15:05;;;;;;;1.40;0.95;;;21.20;51.80;;;;;;5033454;28;20060;-66
2021/01/05 03:17:31;;;;;;;;;;;21.10;51.70;;;;;;5028526;28;20135;-66
2021/01/05 03:19:59;;;;;;;1.40;0.93;;;21.20;51.80;;;;;;5029418;28;20054;-66
2021/01/05 03:22:28;;;;;;;1.53;0.90;;;21.10;51.70;;;;;;5041193;28;20036;-66
2021/01/05 03:24:57;;;;;;;1.10;0.85;;;21.10;51.70;;;;;;5032794;28;20037;-66
2021/01/05 03:27:22;;;;;;;1.45;0.93;;;21.10;51.70;;;;;;5027802;28;20581;-66
2021/01/05 03:29:53;;;;;;;1.20;0.95;;;21.10;51.80;;;;;;5025369;28;20034;-66
2021/01/05 03:32:19;;;;;;;1.17;0.90;;;21.10;51.80;;;;;;5032259;28;20082;-66
2021/01/05 03:34:45;;;;;;;1.00;0.90;;;21.00;51.70;;;;;;5035245;28;20056;-66
2021/01/05 03:37:10;;;;;;;1.58;1.00;;;21.00;51.80;;;;;;5043100;28;20462;-66
2021/01/05 03:39:36;;;;;;;1.20;0.98;;;21.00;51.80;;;;;;5036928;28;20029;-66
2021/01/05 03:42:02;;;;;;;1.60;1.00;;;21.00;51.80;;;;;;5025718;28;20067;-66
2021/01/05 03:44:27;;;;;;;1.20;0.93;;;21.00;51.70;;;;;;5041376;28;20036;-66
2021/01/05 03:46:53;;;;;;;1.45;0.95;;;21.00;51.70;;;;;;5039467;28;20057;-66
2021/01/05 03:49:18;;;;;;;1.25;0.90;;;21.00;51.80;;;;;;5028991;28;20025;-66
2021/01/05 03:51:44;;;;;;;1.30;0.90;;;21.00;51.80;;;;;;5026017;28;20523;-66
2021/01/05 03:54:09;;;;;;;1.38;1.00;;;21.00;51.70;;;;;;5024419;28;20121;-66
2021/01/05 03:56:35;;;;;;;1.42;1.00;;;21.00;51.80;;;;;;5039941;28;20131;-66
2021/01/05 03:59:00;;;;;;;1.08;0.88;;;21.00;51.80;;;;;;5043184;28;20437;-66
2021/01/05 04:01:26;;;;;;;1.20;0.90;;;20.90;51.70;;;;;;5046238;28;20138;-66
2021/01/05 04:03:52;;;;;;;1.38;1.00;;;20.90;51.80;;;;;;5034623;28;20029;-66
2021/01/05 04:06:17;;;;;;;1.40;1.00;;;20.90;51.80;;;;;;5026344;28;20099;-66
2021/01/05 04:08:43;;;;;;;1.42;1.00;;;20.90;51.80;;;;;;5026647;28;20105;-66
2021/01/05 04:11:09;;;;;;;1.05;0.82;;;20.90;51.80;;;;;;5024733;28;20115;-66
2021/01/05 04:13:34;;;;;;;1.25;0.80;;;20.90;51.80;;;;;;5040837;28;20029;-66
2021/01/05 04:16:00;;;;;;;1.20;0.80;;;20.90;51.70;;;;;;5032990;28;20040;-66
2021/01/05 04:18:25;;;;;;;1.20;0.98;;;20.90;51.80;;;;;;5026628;28;20021;-66
2021/01/05 04:20:51;;;;;;;1.27;0.90;;;20.80;51.80;;;;;;5030763;28;20399;-66
2021/01/05 04:23:16;;;;;;;1.02;0.80;;;20.80;51.80;;;;;;5028699;28;20503;-66
2021/01/05 04:25:42;;;;;;;1.35;1.00;;;20.80;51.90;;;;;;5035164;28;20473;-66
2021/01/05 04:28:08;;;;;;;0.80;0.80;;;20.80;51.90;;;;;;5029453;28;20059;-66
2021/01/05 04:30:35;;;;;;;1.33;1.00;;;20.80;51.80;;;;;;5028400;28;20056;-66
2021/01/05 04:33:05;;;;;;;1.33;1.02;;;20.80;51.90;;;;;;5032032;28;20033;-66
2021/01/05 04:35:30;;;;;;;;;;;20.80;51.90;;;;;;5032741;28;20029;-66
2021/01/05 04:37:56;;;;;;;1.10;0.80;;;20.80;51.90;;;;;;5029234;28;19917;-66
2021/01/05 04:40:22;;;;;;;1.33;1.00;;;20.80;51.90;;;;;;5027893;28;20029;-66
2021/01/05 04:43:04;;;;;;;1.15;0.80;;;20.80;51.90;;;;;;5034495;28;20027;-66
2021/01/05 04:45:32;;;;;;;1.67;0.93;;;20.80;52.00;;;;;;5044994;28;20026;-66
2021/01/05 04:48:11;;;;;;;1.25;0.90;;;20.80;52.00;;;;;;5029073;28;20064;-66
2021/01/05 04:50:48;;;;;;;1.20;0.90;;;20.80;52.00;;;;;;5045806;28;20387;-66
2021/01/05 04:53:26;;;;;;;1.38;0.90;;;20.70;52.00;;;;;;5033179;28;20037;-66
2021/01/05 04:56:09;;;;;;;1.35;0.90;;;20.70;52.00;;;;;;5038555;28;20055;-66
2021/01/05 04:58:51;;;;;;;1.08;0.77;;;20.70;52.00;;;;;;5042176;28;20403;-66
2021/01/05 05:01:29;;;;;;;1.13;0.90;;;20.70;52.00;;;;;;5034966;28;20036;-66
2021/01/05 05:04:19;;;;;;;1.20;0.85;;;20.70;52.10;;;;;;5028525;28;20037;-66
2021/01/05 05:06:52;;;;;;;1.00;0.80;;;20.70;52.10;;;;;;5041619;28;20074;-66
2021/01/05 05:09:55;;;;;;;1.20;0.80;;;20.70;52.10;;;;;;5039960;28;20030;-66
2021/01/05 05:12:36;;;;;;;1.45;1.00;;;20.70;52.10;;;;;;5028095;28;20025;-66
2021/01/05 05:15:27;;;;;;;1.02;0.90;;;20.70;52.10;;;;;;5031441;28;20111;-66
2021/01/05 05:17:55;;;;;;;1.30;0.80;;;20.70;52.10;;;;;;5039777;28;20028;-66
2021/01/05 05:20:44;;;;;;;0.90;0.70;;;20.70;52.10;;;;;;5029746;28;20120;-66
2021/01/05 05:23:51;;;;;;;1.45;0.90;;;20.70;52.10;;;;;;5040784;28;20392;-66
2021/01/05 05:26:25;;;;;;;1.20;0.90;;;20.70;52.10;;;;;;5026243;28;20220;-66
2021/01/05 05:29:09;;;;;;;1.60;1.10;;;20.70;52.10;;;;;;5043681;28;20329;-66
2021/01/05 05:31:35;;;;;;;1.15;0.82;;;20.70;52.20;;;;;;5038077;28;20425;-66
2021/01/05 05:34:26;;;;;;;1.33;0.80;;;20.70;52.20;;;;;;5021964;28;20437;-66
2021/01/05 05:37:08;;;;;;;1.40;0.90;;;20.70;52.20;;;;;;5026090;28;20034;-66
2021/01/05 05:40:04;;;;;;;1.27;0.90;;;20.60;52.10;;;;;;5028028;28;20069;-66
2021/01/05 05:43:05;;;;;;;1.10;0.80;;;20.60;52.10;;;;;;5026202;28;20040;-66
2021/01/05 05:45:56;;;;;;;0.73;0.70;;;20.60;52.20;;;;;;5033111;28;20029;-66
2021/01/05 05:48:33;;;;;;;1.20;0.90;;;20.60;52.20;;;;;;5024474;28;20128;-66
2021/01/05 05:51:25;;;;;;;1.25;0.80;;;20.60;52.20;;;;;;5027007;28;20622;-66
2021/01/05 05:54:08;;;;;;;0.90;0.73;;;20.60;52.20;;;;;;5032029;28;20245;-66
2021/01/05 05:56:52;;;;;;;1.20;0.93;;;20.60;52.20;;;;;;5034742;28;20041;-66
2021/01/05 05:59:27;;;;;;;1.40;0.80;;;20.60;52.20;;;;;;5043381;28;20471;-66
2021/01/05 06:01:52;;;;;;;1.00;0.80;;;20.60;52.20;;;;;;5032732;28;20535;-66
2021/01/05 06:04:21;;;;;;;1.00;0.80;;;20.60;52.20;;;;;;5032288;28;20033;-66
2021/01/05 06:06:47;;;;;;;1.10;0.82;;;20.60;52.30;;;;;;5026313;28;20059;-66
2021/01/05 06:09:12;;;;;;;1.10;0.85;;;20.60;52.20;;;;;;5024245;28;20100;-66
2021/01/05 06:11:38;;;;;;;1.10;0.82;;;20.60;52.30;;;;;;5035671;28;20083;-66
2021/01/05 06:14:05;;;;;;;1.00;0.70;;;20.60;52.30;;;;;;5025023;28;20052;-66
2021/01/05 06:16:32;;;;;;;1.40;0.90;;;20.60;52.30;;;;;;5030773;28;20119;-66
2021/01/05 06:18:58;;;;;;;1.23;0.80;;;20.60;52.30;;;;;;5027406;28;20052;-66
2021/01/05 06:21:23;;;;;;;0.95;0.80;;;20.60;52.30;;;;;;5032992;28;20228;-66
2021/01/05 06:23:49;;;;;;;1.23;0.90;;;20.60;52.30;;;;;;5029335;28;20057;-66
2021/01/05 06:26:19;;;;;;;0.93;0.80;;;20.50;52.20;;;;;;5026418;28;20425;-66
2021/01/05 06:28:46;;;;;;;1.10;0.80;;;20.50;52.30;;;;;;5039471;28;20085;-66
2021/01/05 06:31:12;;;;;;;0.85;0.80;;;20.50;52.30;;;;;;5030847;28;20042;-66
2021/01/05 06:33:38;;;;;;;1.05;0.80;;;20.60;52.30;;;;;;5022576;28;20029;-66
2021/01/05 06:36:04;;;;;;;1.30;1.00;;;20.50;52.30;;;;;;5026117;28;20033;-66
2021/01/05 06:38:30;;;;;;;1.10;0.85;;;20.50;52.30;;;;;;5025130;28;20073;-67
2021/01/05 06:40:55;;;;;;;1.30;0.95;;;20.50;52.30;;;;;;5037756;28;20206;-66
2021/01/05 06:43:21;;;;;;;0.90;0.80;;;20.50;52.30;;;;;;5029069;28;20033;-66
2021/01/05 06:45:47;;;;;;;0.85;0.80;;;20.50;52.30;;;;;;5031296;28;20033;-66
2021/01/05 06:48:12;;;;;;;1.02;0.80;;;20.50;52.30;;;;;;5023687;28;20045;-66
2021/01/05 06:50:38;;;;;;;1.10;0.80;;;20.50;52.30;;;;;;5025110;28;20108;-66
2021/01/05 06:53:03;;;;;;;1.00;0.80;;;20.50;52.30;;;;;;5025856;28;20033;-66
2021/01/05 06:55:30;;;;;;;0.88;0.80;;;20.50;52.30;;;;;;5025163;28;20057;-66
2021/01/05 06:57:56;;;;;;;1.15;0.88;;;20.50;52.30;;;;;;5031809;28;20025;-66
2021/01/05 07:00:25;;;;;;;0.98;0.75;;;20.50;52.30;;;;;;5045001;28;20052;-66
2021/01/05 07:02:51;;;;;;;0.90;0.73;;;20.50;52.30;;;;;;5039751;28;20496;-66
2021/01/05 07:05:17;;;;;;;1.10;0.80;;;20.50;52.40;;;;;;5026049;28;20111;-66
2021/01/05 07:07:44;;;;;;;1.00;0.73;;;20.40;52.30;;;;;;5034531;28;20132;-66
2021/01/05 07:10:10;;;;;;;0.75;0.70;;;20.50;52.40;;;;;;5059680;28;20025;-66
2021/01/05 07:12:37;;;;;;;0.95;0.80;;;20.50;52.90;;;;;;5042525;28;20119;-66
2021/01/05 07:15:08;;;;;;;1.13;0.90;;;20.40;52.30;;;;;;5031015;28;20025;-66
2021/01/05 07:17:34;;;;;;;1.17;0.80;;;20.50;52.40;;;;;;5026070;28;20031;-66
2021/01/05 07:20:00;;;;;;;1.20;0.80;;;20.40;52.30;;;;;;5024439;28;20533;-66
2021/01/05 07:22:25;;;;;;;1.15;0.80;;;20.50;52.40;;;;;;5028148;28;20063;-66
2021/01/05 07:24:51;;;;;;;1.27;0.80;;;20.40;52.30;;;;;;5027661;28;20054;-66
2021/01/05 07:27:17;;;;;;;1.20;0.90;;;20.40;52.30;;;;;;5043487;28;20103;-66
2021/01/05 07:29:42;;;;;;;1.13;0.70;;;20.40;52.30;;;;;;5039159;28;20076;-66
2021/01/05 07:32:08;;;;;;;1.08;0.80;;;20.50;52.40;;;;;;5025953;28;20156;-66
2021/01/05 07:34:37;;;;;;;1.00;0.80;;;20.40;52.30;;;;;;5023095;28;20037;-66
2021/01/05 07:37:06;;;;;;;1.60;1.00;;;20.40;52.90;;;;;;5043239;28;20392;-66
2021/01/05 07:39:33;;;;;;;1.08;0.70;;;20.40;52.90;;;;;;5042840;28;20349;-66
2021/01/05 07:42:19;;;;;;;0.75;0.73;;;20.40;52.40;;;;;;5024726;28;20481;-66
2021/01/05 07:44:46;;;;;;;0.90;0.70;;;20.40;52.40;;;;;;5028634;28;20041;-66
2021/01/05 07:47:13;;;;;;;0.98;0.80;;;20.40;52.40;;;;;;5029477;28;20150;-66
2021/01/05 07:49:40;;;;;;;1.10;0.80;;;20.40;52.40;;;;;;5036484;28;20033;-66
2021/01/05 07:52:32;;;;;;;1.33;0.90;;;20.40;52.40;;;;;;5034051;28;20407;-66
2021/01/05 07:54:58;;;;;;;1.25;0.93;;;20.40;52.40;;;;;;5032830;28;20028;-66
2021/01/05 07:57:24;;;;;;;1.13;0.75;;;20.40;52.40;;;;;;5030341;28;20018;-66
2021/01/05 07:59:50;;;;;;;0.95;0.73;;;20.40;53.00;;;;;;5037004;28;20059;-66
2021/01/05 08:02:15;;;;;;;1.05;0.80;;;20.40;52.40;;;;;;5029334;28;20429;-66
2021/01/05 08:04:42;;;;;;;1.02;0.80;;;20.40;52.40;;;;;;5028028;28;20112;-66
2021/01/05 08:07:08;;;;;;;0.90;0.70;;;20.30;52.40;;;;;;5045556;28;20125;-66
2021/01/05 08:09:36;;;;;;;1.08;0.88;;;20.30;52.40;;;;;;5041395;28;20040;-66
2021/01/05 08:12:02;;;;;;;0.88;0.70;;;20.30;52.40;;;;;;5049531;28;20035;-66
2021/01/05 08:14:27;;;;;;;0.95;0.80;;;20.30;52.40;;;;;;5041179;28;20033;-66
2021/01/05 08:16:53;;;;;;;0.77;0.70;;;20.30;52.40;;;;;;5034002;28;20480;-66
2021/01/05 08:19:19;;;;;;;1.30;0.90;;;20.30;52.40;;;;;;5030095;28;20029;-66
2021/01/05 08:21:44;;;;;;;0.90;0.80;;;20.30;52.40;;;;;;5049841;28;20479;-66
2021/01/05 08:24:10;;;;;;;0.98;0.80;;;20.30;52.40;;;;;;5033932;28;20029;-66
2021/01/05 08:26:36;;;;;;;1.02;0.80;;;20.30;52.40;;;;;;5034879;28;20045;-66
2021/01/05 08:29:01;;;;;;;1.40;0.90;;;20.30;52.40;;;;;;5045627;28;20090;-66
2021/01/05 08:31:35;;;;;;;1.05;0.80;;;20.30;52.40;;;;;;5038007;28;20839;-66
2021/01/05 08:34:01;;;;;;;0.90;0.80;;;20.30;52.40;;;;;;5031247;28;20074;-66
2021/01/05 08:36:29;;;;;;;0.93;0.73;;;20.30;52.40;;;;;;5030447;28;20029;-66
2021/01/05 08:38:55;;;;;;;0.80;0.77;;;20.30;52.40;;;;;;5042948;28;20040;-66
2021/01/05 08:41:21;;;;;;;1.10;0.85;;;20.30;52.40;;;;;;5035660;28;20044;-66
2021/01/05 08:43:46;;;;;;;0.93;0.80;;;20.30;52.40;;;;;;5031923;28;20034;-65
2021/01/05 08:46:19;;;;;;;1.23;0.80;;;20.30;52.40;;;;;;5031912;28;20065;-65
2021/01/05 08:48:44;;;;;;;1.05;0.80;;;20.30;52.40;;;;;;5034698;28;20073;-65
2021/01/05 08:51:10;;;;;;;0.85;0.70;;;20.30;52.40;;;;;;5028306;28;20546;-65
2021/01/05 08:53:36;;;;;;;1.00;0.77;;;20.30;52.40;;;;;;5031315;28;20024;-65
2021/01/05 08:56:01;;;;;;;1.10;0.90;;;20.30;52.50;;;;;;5035392;28;21333;-65
2021/01/05 08:58:28;;;;;;;1.15;0.88;;;20.30;52.40;;;;;;5035076;28;20033;-65
2021/01/05 09:00:54;;;;;;;1.00;0.70;;;20.30;52.40;;;;;;5028597;28;20410;-65
2021/01/05 09:03:20;;;;;;;0.88;0.73;;;20.20;52.40;;;;;;5029060;28;20032;-65
2021/01/05 09:05:46;;;;;;;1.05;0.88;;;20.20;52.40;;;;;;5031225;28;20103;-65
2021/01/05 09:08:13;;;;;;;0.82;0.73;;;20.20;52.40;;;;;;5035784;28;20144;-65
2021/01/05 09:10:38;;;;;;;0.70;0.70;;;20.20;52.90;;;;;;5046525;28;20104;-65
2021/01/05 09:13:04;;;;;;;0.80;0.60;;;20.20;52.40;;;;;;5038573;28;20179;-65
2021/01/05 09:15:29;;;;;;;1.10;0.70;;;20.20;52.40;;;;;;5038577;28;20393;-64
2021/01/05 09:17:55;;;;;;;1.02;0.80;;;20.20;52.40;;;;;;5026754;28;20026;-65
2021/01/05 09:20:23;;;;;;;0.98;0.80;;;20.20;52.40;;;;;;5025255;28;20496;-65
2021/01/05 09:22:50;;;;;;;0.88;0.77;;;20.20;52.40;;;;;;5028518;28;20453;-65
2021/01/05 09:25:16;;;;;;;0.80;0.70;;;20.20;52.90;;;;;;5032331;28;20132;-66
2021/01/05 09:27:42;;;;;;;0.82;0.70;;;20.20;52.40;;;;;;5027067;28;20159;-66
2021/01/05 09:30:17;;;;;;;1.05;0.80;;;20.20;52.40;;;;;;5033248;28;20120;-66
2021/01/05 09:32:43;;;;;;;0.82;0.60;;;20.20;52.40;;;;;;5029825;28;20037;-65
2021/01/05 09:35:09;;;;;;;1.17;0.80;;;20.20;52.40;;;;;;5033115;28;20064;-65
2021/01/05 09:37:34;;;;;;;0.93;0.80;;;20.20;52.40;;;;;;5035265;28;20028;-67
2021/01/05 09:40:00;;;;;;;1.00;0.90;;;20.20;52.50;;;;;;5029765;28;20052;-65
2021/01/05 09:42:29;;;;;;;0.73;0.70;;;20.20;52.50;;;;;;5031759;28;20037;-66
2021/01/05 09:44:54;;;;;;;1.00;0.77;;;20.20;52.50;;;;;;5034775;28;20458;-66
2021/01/05 09:47:20;;;;;;;1.27;0.90;;;20.20;52.50;;;;;;5028601;28;20398;-66
2021/01/05 09:49:50;;;;;;;0.90;0.73;;;20.20;52.50;;;;;;5036315;28;20796;-68
2021/01/05 09:52:16;;;;;;;0.93;0.73;;;20.20;52.50;;;;;;5031709;28;20036;-69
2021/01/05 09:54:48;;;;;;;1.13;0.90;;;20.20;52.50;;;;;;5032291;28;20064;-68
2021/01/05 09:57:14;;;;;;;1.13;0.80;;;20.20;52.50;;;;;;5033414;28;20458;-69
2021/01/05 09:59:40;;;;;;;1.23;0.88;;;20.20;52.80;;;;;;5024438;28;20167;-68
2021/01/05 10:02:07;;;;;;;0.77;0.70;;;20.20;52.50;;;;;;5028414;28;20441;-68
2021/01/05 10:04:32;;;;;;;1.40;0.80;;;20.20;52.50;;;;;;5030753;28;20132;-69
2021/01/05 10:06:58;;;;;;;1.00;0.80;;;20.20;52.60;;;;;;5033087;28;20504;-69
2021/01/05 10:09:24;;;;;;;1.15;0.80;;;20.20;52.50;;;;;;5031902;28;20029;-69
2021/01/05 10:11:49;;;;;;;1.10;0.80;;;20.20;52.50;;;;;;5039799;28;20041;-69
2021/01/05 10:14:18;;;;;;;1.20;0.85;;;20.10;52.50;;;;;;5039531;28;20040;-69
2021/01/05 10:16:45;;;;;;;1.23;0.90;;;20.10;52.40;;;;;;5028225;28;20280;-69
2021/01/05 10:19:13;;;;;;;1.10;0.82;;;20.10;52.50;;;;;;5032468;28;20105;-66
2021/01/05 10:21:41;;;;;;;0.95;0.77;;;20.10;52.50;;;;;;5037272;28;20028;-68
2021/01/05 10:24:09;;;;;;;1.60;1.00;;;20.10;52.50;;;;;;5034103;28;20029;-69
2021/01/05 10:26:35;;;;;;;1.17;0.80;;;20.10;52.50;;;;;;5033519;28;20156;-68
2021/01/05 10:29:03;;;;;;;0.90;0.70;;;20.10;52.50;;;;;;5035770;28;20594;-70
2021/01/05 10:31:39;;;;;;;1.33;1.00;;;20.10;52.50;;;;;;5031070;28;20325;-69
2021/01/05 10:34:06;;;;;;;1.20;0.80;;;20.10;52.50;;;;;;5041237;28;20439;-69
2021/01/05 10:36:32;;;;;;;1.20;0.90;;;20.10;52.50;;;;;;5037709;28;20384;-69
2021/01/05 10:38:57;;;;;;;0.80;0.80;;;20.10;52.50;;;;;;5034275;28;20083;-69
2021/01/05 10:41:32;;;;;;;1.48;0.80;;;20.10;52.50;;;;;;5043951;28;20030;-69
2021/01/05 10:43:57;;;;;;;0.70;0.70;;;20.10;52.50;;;;;;5042354;28;20100;-69
2021/01/05 10:46:23;;;;;;;1.27;0.80;;;20.10;52.50;;;;;;5035616;28;20166;-69
2021/01/05 10:48:49;;;;;;;1.25;0.88;;;20.10;52.50;;;;;;5024705;28;20507;-70
2021/01/05 10:51:14;;;;;;;1.20;0.80;;;20.10;52.50;;;;;;5045071;28;20324;-70
2021/01/05 10:53:40;;;;;;;1.13;0.80;;;20.10;52.50;;;;;;5032035;28;20037;-69
2021/01/05 10:56:05;;;;;;;1.48;0.90;;;20.10;52.50;;;;;;5035404;28;20847;-69
2021/01/05 10:58:31;;;;;;;1.20;0.88;;;20.10;52.50;;;;;;5030445;28;20068;-70
2021/01/05 11:00:56;;;;;;;0.90;0.80;;;20.10;52.50;;;;;;5023242;28;20055;-70
2021/01/05 11:03:22;;;;;;;1.25;0.75;;;20.10;52.50;;;;;;5025174;28;20037;-70
2021/01/05 11:05:47;;;;;;;1.00;0.80;;;20.10;52.50;;;;;;5026692;28;20091;-69
2021/01/05 11:08:13;;;;;;;1.48;0.90;;;20.10;52.50;;;;;;5024511;28;20033;-69
2021/01/05 11:10:39;;;;;;;1.00;0.90;;;20.10;52.50;;;;;;5024734;28;20037;-70
2021/01/05 11:13:04;;;;;;;1.13;0.70;;;20.00;52.40;;;;;;5026595;28;20261;-70
2021/01/05 11:15:30;;;;;;;1.10;0.90;;;20.10;52.60;;;;;;5028799;28;20461;-69
2021/01/05 11:17:55;;;;;;;1.33;0.95;;;20.10;52.50;;;;;;5031475;28;20124;-67
2021/01/05 11:20:21;;;;;;;1.15;0.80;;;20.00;52.50;;;;;;5027426;28;20425;-66
2021/01/05 11:22:49;;;;;;;1.10;0.80;;;20.00;52.50;;;;;;5031873;28;20037;-68
2021/01/05 11:25:16;;;;;;;1.45;0.80;;;20.00;52.50;;;;;;5033907;28;20030;-68
2021/01/05 11:27:42;;;;;;;1.45;0.98;;;20.00;52.50;;;;;;5031816;28;20465;-68
2021/01/05 11:30:12;;;;;;;1.17;0.88;;;20.00;52.50;;;;;;5044616;28;20032;-68
2021/01/05 11:32:37;;;;;;;1.00;0.80;;;20.00;52.50;;;;;;5036277;28;20045;-68
2021/01/05 11:35:06;;;;;;;1.30;1.00;;;20.00;52.50;;;;;;5031422;28;20025;-68
2021/01/05 11:37:35;;;;;;;1.58;0.90;;;20.00;52.50;;;;;;5035496;28;20029;-69
2021/01/05 11:40:00;;;;;;;1.13;0.90;;;20.00;52.50;;;;;;5033220;28;20068;-70
2021/01/05 11:42:26;;;;;;;1.15;0.90;;;20.00;52.50;;;;;;5032723;28;20037;-69
2021/01/05 11:44:52;;;;;;;1.02;0.80;;;20.00;52.50;;;;;;5034762;28;20104;-67
2021/01/05 11:47:20;;;;;;;1.20;0.93;;;20.00;52.50;;;;;;5032706;28;20136;-67
2021/01/05 11:49:46;;;;;;;1.38;0.90;;;20.00;52.50;;;;;;5033954;28;20026;-67
2021/01/05 11:52:12;;;;;;;1.98;0.90;;;20.00;52.40;;;;;;5039274;28;20369;-67
2021/01/05 11:54:37;;;;;;;1.10;0.90;;;20.00;52.40;;;;;;5033491;28;20060;-67
2021/01/05 11:57:03;;;;;;;1.52;1.00;;;20.00;52.50;;;;;;5046535;28;20540;-67
2021/01/05 11:59:29;;;;;;;1.33;0.90;;;20.00;52.40;;;;;;5038405;28;20029;-68
2021/01/05 12:01:55;;;;;;;1.25;0.90;;;20.00;52.40;;;;;;5041857;28;20104;-67
2021/01/05 12:04:21;;;;;;;1.48;1.05;;;20.00;52.40;;;;;;5033364;28;20055;-67
2021/01/05 12:06:49;;;;;;;1.92;0.90;;;20.00;52.40;;;;;;5039172;28;20029;-67
2021/01/05 12:09:16;;;;;;;1.08;0.90;;;20.00;52.40;;;;;;5038570;28;20421;-67
2021/01/05 12:11:41;;;;;;;1.48;1.02;;;20.00;52.50;;;;;;5027928;28;20025;-68
2021/01/05 12:14:08;;;;;;;1.45;0.93;;;20.00;52.60;;;;;;5035509;28;20465;-70
2021/01/05 12:16:39;;;;;;;1.70;0.98;;;20.00;52.40;;;;;;5037897;28;20037;-68
2021/01/05 12:19:07;;;;;;;2.80;1.10;;;20.00;52.40;;;;;;5043001;28;20116;-69
2021/01/05 12:21:36;;;;;;;1.50;1.00;;;20.00;52.30;;;;;;5067518;28;20078;-68
2021/01/05 12:24:03;;;;;;;2.00;1.10;;;20.00;52.80;;;;;;5043235;28;20017;-68
2021/01/05 12:26:37;;;;;;;1.90;1.10;;;20.00;52.30;;;;;;5040223;28;20040;-70
2021/01/05 12:29:08;;;;;;;1.33;1.00;;;20.00;52.30;;;;;;5032663;28;20422;-69
2021/01/05 12:31:43;;;;;;;1.40;1.00;;;19.90;52.20;;;;;;5033810;28;20090;-67
2021/01/05 12:34:10;;;;;;;1.58;1.08;;;19.90;52.20;;;;;;5030133;28;20029;-68
2021/01/05 12:36:39;;;;;;;1.80;1.30;;;20.00;52.30;;;;;;5032110;28;20783;-68
2021/01/05 12:39:06;;;;;;;1.40;1.13;;;19.90;52.30;;;;;;5026196;28;20033;-68
2021/01/05 12:41:36;;;;;;;1.48;1.08;;;19.90;52.20;;;;;;5038062;28;20448;-68
2021/01/05 12:44:04;;;;;;;2.35;1.20;;;19.90;52.20;;;;;;5040016;28;20039;-68
2021/01/05 12:46:33;;;;;;;1.83;1.10;;;19.90;52.20;;;;;;5037056;28;20044;-68
2021/01/05 12:48:59;;;;;;;1.75;1.00;;;19.90;52.20;;;;;;5026550;28;20030;-69
2021/01/05 12:51:30;;;;;;;1.50;1.08;;;19.90;52.30;;;;;;5027299;28;20457;-68
2021/01/05 12:53:55;;;;;;;1.67;1.10;;;19.90;52.80;;;;;;5029037;28;20663;-69
2021/01/05 12:56:21;;;;;;;1.60;1.10;;;19.90;52.20;;;;;;5039091;28;20498;-69
2021/01/05 12:58:47;;;;;;;2.70;1.20;;;19.90;52.30;;;;;;5038286;28;20029;-69
2021/01/05 13:01:15;;;;;;;1.80;1.20;;;19.90;52.30;;;;;;5039177;28;20024;-68
2021/01/05 13:03:41;;;;;;;2.05;0.98;;;19.90;52.30;;;;;;5038813;28;20040;-68